Timeline UpdatesTrip UpdatesNews PostsPvt PostsTravel TipsAdmin PostsConv PostsFollowed PostsChat RequestsBlog PostsPNR Posts

Disclaimer
Search
 
 
Sat Apr 19, 2014 04:51:57 ISTHomeTrainsΣChainsAtlasPNRForumGalleryNewsFAQTripsMembersLoginFeedback
No Recent News for this Train
Other Trains in the News **new
Latest...
.
Sat Feb 22, 2014 (09:04PM)
⇐ Return Journey: Train# 57305

57306/Guntur Kacheguda Passenger

Jul 03 2013 (11:33AM)
Change Departure Station:
Change Arrival Station:
Post a Train Travel TipPost a Train Travel Tip **new
Post a Comment/Question/Picture/VideoPost a Comment/Question/Picture/Video
Pantry/Catering
✕ NO Pantry Car
✕ NO Catering
Loco/Rake Reversals
DHNE/Dhone Junction (3);
RSA - Rake Sharing
57307 (KCG - MED Passenger).
Rake/Coach Composition
ENG-SLR-GEN-GEN-GEN-GEN-GEN-S2-S1-GEN-GEN-GEN-GEN-GEN-GEN-SLR, Entry# 721867, Author: Raghavender Daramoni.
Loco
MLY WDM-3A/WDG-3A.
News    PNR    Forum    Time-Table    Availability    Fare Chart    Map    Arr/Dep History    Trips    Gallery    ΣChains    X/O    Timeline    
Travel Time: 12h 25m    33 halts    Distance: 447 km    Avg Speed: 36 km/hr
Type: Passenger
Zone: SCR/South Central
Departs @ 21:35 (Avg 40m late)
Platform# ???
SMTWTFS
Jaggambotla Krishnapuram/JBK 
Arrives @ 10:00 +1 night (Avg 8m late)
Platform# 1
SMTWTFS
Hyderabad Kacheguda/KCG 

33 halts. 61 intermediate Stations between Jaggambotla Krishnapuram and Hyderabad Kacheguda

Show ALL intermediate Stations  

#CodeStation NameX/OArrivesAvgDepartsAvgHaltPFDay#KmSpeedElevZoneAddress
1GNTGuntur Junction (7)  -17:30+711-176.82737mSCRGuntur, Andhra Pradesh
2NLPDNallapadu Junction (3)  17:41+1317:42+151m--1-171.94346mSCRPhone Number : 0863-2119153, Andhra Pradesh
3PRCAPerecherla (1)  17:51+1617:52+181m11-165.56475mSCRPerecherlaPRCA Station Phone Number : 0863-2290580, Andhra Pradesh
4PPMPhirangipuram  18:01+2018:02+211m--1-155.96162mSCRPhirangipuram, Andhra Pradesh
5NDPUNudurupadu  18:09+2418:10+241m--1-148.79349mSCRCoastal Andhra Region, Andhra Pradesh
6STURSatulur  18:14+2918:15+311m--1-142.64359mSCRGuntur, Andhra Pradesh
7NRTNarasaraopet (3)  18:30+2818:32+302m--1-131.86774mSCRNarsaraopet ph.no 08647-223131, Andhra Pradesh
8MUKMunumaka  18:39+3318:40+351m--1-124.05769mSCR08647-219555, Andhra Pradesh
9SABSantamagulur  18:49+3618:50+371m--1-115.54175mSCRGuntur, Andhra Pradesh
10VLCAVellalacheruvu Halt  18:55-18:56-1m--1-112.02387mSCRVellalacheruvu, Andhra Pradesh
11SYMSavalyapuramX  19:17+2519:18+261m--1-104.04587mSCRGuntur Phone Number : 08646-259211, Andhra Pradesh
12VKNVinukonda (1)  19:31+2419:32+261m11-94.37595mSCRVinukonda, Andhra Pradesh
13CEMCheekategalapalem  19:39+2819:40+301m--1-85.54478mSCRVinukonda, Andhra Pradesh
14GKMGundlakamma (1)  19:46+3219:47+331m11-81.14891mSCRVinukonda, Andhra Pradesh
15KCDKurichedu (1)  20:01+3220:02+331m11-69.958121mSCRPrakasam dt, Andhra Pradesh
16POOPotlapadu (1)  20:09+3620:10+371m11-63.137147mSCRAndhra Pradesh, Andhra Pradesh
17DKDDonakonda (3)  20:20+3520:22+372m--1-56.947154mSCRPhone:08408-272037, Andhra Pradesh
18GJJGajjelakonda (1)  20:36+3520:37+361m11-46.057153mSCRPrakasam. Telephone 08499-247233, Andhra Pradesh
19MRKMarkapur Road (2)  20:51+3820:52+391m11-32.639156mSCRmarkapur road ph.no 08596-222028, Andhra Pradesh
20TLUTarlupadu (1)  21:09+3521:10+351m11-21.764164mSCRPhone Number : 08499-246232, Andhra Pradesh
21CBMCumbum (1)  21:24+3621:25+381m11-6.845199mSCRprakasham dist, Andhra Pradesh
22JBK»Jaggambotla Krishnapuram»X  21:34+3921:35+401m--10.050200mSCRPhone;08406-200100, Andhra Pradesh
23SDVSomidevipalle  21:49+3821:50+401m--111.753225mSCRPhone Number : 9441901913, Andhra Pradesh
24GMAGudimetta  21:55+4321:56+431m--116.245231mSCRBestavaripeta, Andhra Pradesh
25GIDGiddalur (2)  22:10+4322:12+442m--126.642269mSCRGiddalur ph.no 08405-242003, Andhra Pradesh
26KSTEKrishnamsetty PalleX  22:19+4322:20+431m--131.544278mSCRPrakasam, Andhra Pradesh
27DMTDiguvametta  22:29+4322:30+541m--138.235315mSCRRayalaseema Region, Andhra Pradesh
28CMZChelama (1)X  22:59+4423:00+461m1154.934314mSCRKurnool, Andhra Pradesh
29GZLGazulapalli  23:19+3523:20+351m--165.619238mSCRKurnool, Andhra Pradesh
30NDLNandyal (3)  00:05+1500:10+225m1279.989216mSCRPhone Number : 9247019958, Andhra Pradesh
31PNMPanyam (2)  00:20+3900:21+431m--294.856227mSCRKurnool Dist., Andhra Pradesh
32BEYBugganipalli Cement Nagar  00:41+4900:42+511m--2113.657386mSCRKurnool, Andhra Pradesh
33BMHBetamcherla (2)  00:49+5400:50+551m--2120.260425mSCRBetamcherla, Andhra Pradesh
34RGMRangapuram  01:01+5501:02+561m--2131.259440mSCRKurnool, Andhra Pradesh
35MLKMalkapuram  01:14+1:0401:15+1:071m--2142.912459mSCRKurnool, Andhra Pradesh
36DHNEDhone Junction (3)XO02:20+1:2602:50+5630m--2156.064425mSCR518222, Andhra Pradesh
37VDIVeldurti (2)X  03:09+1:0303:10+1:031m--2176.246341mSCRVeldurthi, Andhra Pradesh
38KRNTKurnool City (3)  03:55+5603:57+1:042m--2210.459293mSCRKurnool Ph:08518-220110, Andhra Pradesh
39SBBJSri Bala Brahmeswara Jogulamba Halt (1)  04:07+1:0804:08+1:081m12220.256312mSCRAlampur Rd, Andhra Pradesh
40GWDGadwal Junction (2)X  04:57+1:0804:58+1:171m--2265.762327mSCRMahbubnagar, Andhra Pradesh
41WPRWanaparti Road (2)  05:19+1:2505:20+1:281m--2287.385330mSCRMahbubnagar, Andhra Pradesh
42MHBTMahbubnagar Town Halt (1)O  05:56+5205:57+521m12338.23500mSCRMahbubnagar, Andhra Pradesh
43MBNRMahbubnagar (3)  06:50+5207:05+4215m--2340.775500mSCRMahbubnagar, Andhra Pradesh
44JCLJadcherla (3)X  07:19+4807:20+491m--2358.350545mSCR509301, Andhra Pradesh
45GLYGollapally (1)  07:29+4907:30+511m12365.948556mSCRMahabubnagar, Andhra Pradesh
46BABRBalanagar (3)  07:49+4507:50+451m12381.239566mSCRMahabubnagar, Andhra Pradesh
47SHNRShadnagar (3)  08:11+3908:12+401m--2394.775648mSCRShadnagar, Andhra Pradesh
48TMXTimmapur (2)X  08:24+4108:25+431m--2409.782582mSCRRangareddy, Andhra Pradesh
49URUmdanagar (3)  08:37+4308:38+441m--2426.156581mSCRHyderabad, Andhra Pradesh
50BDVLBudvel (2)  08:45+4308:46+431m--2432.614556mSCRHyderabad, Andhra Pradesh
51FMFalaknuma (3)  09:14+3309:15+331m--2439.337523mSCRHyderabad, Andhra Pradesh
52HPGHuppuguda (2)  09:17+3309:18+331m--2440.549520mSCRHyderabad, Andhra Pradesh
53YKAYakutpura (2)  09:21+3309:22+331m--2443.046505mSCRHyderabad, Andhra Pradesh
54DQRDabirpura (2)  09:23+3309:24+331m--2443.738500mSCRHyderabad, Andhra Pradesh
55MXTMalakpet (2)  09:26+809:27+81m12445.03494mSCRHyderabad, Andhra Pradesh
56KCG•Hyderabad Kacheguda (5)•  10:00+8-12446.6-494mSCRHyderabad - 500027, Andhra Pradesh
Scroll to Top
Scroll to Bottom